sensor_id;sensor_type;location;lat;lon;timestamp;temperature;humidity
23403;DHT22;11874;48.228;11.684;2023-01-10T00:00:43;6.40;99.90
23403;DHT22;11874;48.228;11.684;2023-01-10T00:03:11;6.30;99.90
23403;DHT22;11874;48.228;11.684;2023-01-10T00:05:39;6.30;99.90
23403;DHT22;11874;48.228;11.684;2023-01-10T00:08:08;6.40;99.90
23403;DHT22;11874;48.228;11.684;2023-01-10T00:10:38;6.40;99.90
23403;DHT22;11874;48.228;11.684;2023-01-10T00:13:12;6.30;99.90
23403;DHT22;11874;48.228;11.684;2023-01-10T00:15:53;6.30;99.90
23403;DHT22;11874;48.228;11.684;2023-01-10T00:18:21;6.30;99.90
23403;DHT22;11874;48.228;11.684;2023-01-10T00:20:49;6.30;99.90
23403;DHT22;11874;48.228;11.684;2023-01-10T00:23:17;6.20;99.90
23403;DHT22;11874;48.228;11.684;2023-01-10T00:25:50;6.20;99.90
23403;DHT22;11874;48.228;11.684;2023-01-10T00:28:18;6.30;99.90
23403;DHT22;11874;48.228;11.684;2023-01-10T00:30:47;6.20;99.90
23403;DHT22;11874;48.228;11.684;2023-01-10T00:33:20;6.30;99.90
23403;DHT22;11874;48.228;11.684;2023-01-10T00:35:48;6.10;99.90
23403;DHT22;11874;48.228;11.684;2023-01-10T00:38:17;6.20;99.90
23403;DHT22;11874;48.228;11.684;2023-01-10T00:40:45;6.20;99.90
23403;DHT22;11874;48.228;11.684;2023-01-10T00:43:14;6.30;99.90
23403;DHT22;11874;48.228;11.684;2023-01-10T00:45:59;6.40;99.90
23403;DHT22;11874;48.228;11.684;2023-01-10T00:48:28;6.40;99.90
23403;DHT22;11874;48.228;11.684;2023-01-10T00:50:56;6.30;99.90
23403;DHT22;11874;48.228;11.684;2023-01-10T00:53:24;6.40;99.90
23403;DHT22;11874;48.228;11.684;2023-01-10T00:55:52;6.30;99.90
23403;DHT22;11874;48.228;11.684;2023-01-10T00:58:22;6.40;99.90
23403;DHT22;11874;48.228;11.684;2023-01-10T01:00:50;6.40;99.90
23403;DHT22;11874;48.228;11.684;2023-01-10T01:03:19;6.60;99.90
23403;DHT22;11874;48.228;11.684;2023-01-10T01:05:47;6.40;99.90
23403;DHT22;11874;48.228;11.684;2023-01-10T01:08:16;6.40;99.90
23403;DHT22;11874;48.228;11.684;2023-01-10T01:10:45;6.40;99.90
23403;DHT22;11874;48.228;11.684;2023-01-10T01:13:14;6.20;99.90
23403;DHT22;11874;48.228;11.684;2023-01-10T01:15:44;6.30;99.90
23403;DHT22;11874;48.228;11.684;2023-01-10T01:18:14;6.20;99.90
23403;DHT22;11874;48.228;11.684;2023-01-10T01:20:43;6.40;99.90
23403;DHT22;11874;48.228;11.684;2023-01-10T01:23:11;6.50;99.90
23403;DHT22;11874;48.228;11.684;2023-01-10T01:25:40;6.50;99.90
23403;DHT22;11874;48.228;11.684;2023-01-10T01:28:08;6.40;99.90
23403;DHT22;11874;48.228;11.684;2023-01-10T01:30:36;6.40;99.90
23403;DHT22;11874;48.228;11.684;2023-01-10T01:33:05;6.50;99.90
23403;DHT22;11874;48.228;11.684;2023-01-10T01:35:33;6.30;99.90
23403;DHT22;11874;48.228;11.684;2023-01-10T01:38:01;6.30;99.90
23403;DHT22;11874;48.228;11.684;2023-01-10T01:40:29;6.30;99.90
23403;DHT22;11874;48.228;11.684;2023-01-10T01:42:57;6.20;99.90
23403;DHT22;11874;48.228;11.684;2023-01-10T01:45:36;6.30;99.90
23403;DHT22;11874;48.228;11.684;2023-01-10T01:48:17;6.30;99.90
23403;DHT22;11874;48.228;11.684;2023-01-10T01:50:50;6.30;99.90
23403;DHT22;11874;48.228;11.684;2023-01-10T01:53:23;6.30;99.90
23403;DHT22;11874;48.228;11.684;2023-01-10T01:55:54;6.30;99.90
23403;DHT22;11874;48.228;11.684;2023-01-10T01:58:25;6.40;99.90
23403;DHT22;11874;48.228;11.684;2023-01-10T02:00:55;6.40;99.90
23403;DHT22;11874;48.228;11.684;2023-01-10T02:03:25;6.30;99.90
23403;DHT22;11874;48.228;11.684;2023-01-10T02:05:54;6.50;99.90
23403;DHT22;11874;48.228;11.684;2023-01-10T02:08:22;6.20;99.90
23403;DHT22;11874;48.228;11.684;2023-01-10T02:10:53;6.20;99.90
23403;DHT22;11874;48.228;11.684;2023-01-10T02:13:24;6.40;99.90
23403;DHT22;11874;48.228;11.684;2023-01-10T02:15:53;6.40;99.90
23403;DHT22;11874;48.228;11.684;2023-01-10T02:18:21;6.30;99.90
23403;DHT22;11874;48.228;11.684;2023-01-10T02:24:17;6.30;99.90
23403;DHT22;11874;48.228;11.684;2023-01-10T02:27:03;6.20;99.90
23403;DHT22;11874;48.228;11.684;2023-01-10T02:30:00;6.30;99.90
23403;DHT22;11874;48.228;11.684;2023-01-10T02:32:37;6.10;99.90
23403;DHT22;11874;48.228;11.684;2023-01-10T02:38:26;6.20;99.90
23403;DHT22;11874;48.228;11.684;2023-01-10T02:41:02;6.20;99.90
23403;DHT22;11874;48.228;11.684;2023-01-10T02:43:34;6.20;99.90
23403;DHT22;11874;48.228;11.684;2023-01-10T02:46:07;6.20;99.90
23403;DHT22;11874;48.228;11.684;2023-01-10T02:48:38;6.20;99.90
23403;DHT22;11874;48.228;11.684;2023-01-10T02:51:13;6.20;99.90
23403;DHT22;11874;48.228;11.684;2023-01-10T02:53:46;6.20;99.90
23403;DHT22;11874;48.228;11.684;2023-01-10T02:56:29;6.10;99.90
23403;DHT22;11874;48.228;11.684;2023-01-10T02:59:24;6.20;99.90
23403;DHT22;11874;48.228;11.684;2023-01-10T03:01:59;6.20;99.90
23403;DHT22;11874;48.228;11.684;2023-01-10T03:04:37;6.20;99.90
23403;DHT22;11874;48.228;11.684;2023-01-10T03:07:18;6.20;99.90
23403;DHT22;11874;48.228;11.684;2023-01-10T03:09:53;6.20;99.90
23403;DHT22;11874;48.228;11.684;2023-01-10T03:12:26;6.20;99.90
23403;DHT22;11874;48.228;11.684;2023-01-10T03:14:56;6.10;99.90
23403;DHT22;11874;48.228;11.684;2023-01-10T03:17:26;6.10;99.90
23403;DHT22;11874;48.228;11.684;2023-01-10T03:19:59;6.00;99.90
23403;DHT22;11874;48.228;11.684;2023-01-10T03:22:29;6.10;99.90
23403;DHT22;11874;48.228;11.684;2023-01-10T03:24:59;6.20;99.90
23403;DHT22;11874;48.228;11.684;2023-01-10T03:27:32;6.10;99.90
23403;DHT22;11874;48.228;11.684;2023-01-10T03:30:08;6.10;99.90
23403;DHT22;11874;48.228;11.684;2023-01-10T03:32:40;6.10;99.90
23403;DHT22;11874;48.228;11.684;2023-01-10T03:35:12;6.00;99.90
23403;DHT22;11874;48.228;11.684;2023-01-10T03:37:44;6.10;99.90
23403;DHT22;11874;48.228;11.684;2023-01-10T03:40:20;6.10;99.90
23403;DHT22;11874;48.228;11.684;2023-01-10T03:42:55;6.10;99.90
23403;DHT22;11874;48.228;11.684;2023-01-10T03:45:43;6.00;99.90
23403;DHT22;11874;48.228;11.684;2023-01-10T03:48:16;6.10;99.90
23403;DHT22;11874;48.228;11.684;2023-01-10T03:50:46;6.10;99.90
23403;DHT22;11874;48.228;11.684;2023-01-10T03:53:16;6.20;99.90
23403;DHT22;11874;48.228;11.684;2023-01-10T03:55:44;6.10;99.90
23403;DHT22;11874;48.228;11.684;2023-01-10T03:58:12;6.20;99.90
23403;DHT22;11874;48.228;11.684;2023-01-10T04:00:40;6.10;99.90
23403;DHT22;11874;48.228;11.684;2023-01-10T04:03:07;6.10;99.90
23403;DHT22;11874;48.228;11.684;2023-01-10T04:05:36;6.00;99.90
23403;DHT22;11874;48.228;11.684;2023-01-10T04:08:05;6.10;99.90
23403;DHT22;11874;48.228;11.684;2023-01-10T04:10:33;6.00;99.90
23403;DHT22;11874;48.228;11.684;2023-01-10T04:13:03;6.10;99.90
23403;DHT22;11874;48.228;11.684;2023-01-10T04:15:32;6.10;99.90
23403;DHT22;11874;48.228;11.684;2023-01-10T04:17:59;6.00;99.90
23403;DHT22;11874;48.228;11.684;2023-01-10T04:20:27;6.10;99.90
23403;DHT22;11874;48.228;11.684;2023-01-10T04:22:55;6.00;99.90
23403;DHT22;11874;48.228;11.684;2023-01-10T04:25:24;6.00;99.90
23403;DHT22;11874;48.228;11.684;2023-01-10T04:27:52;6.00;99.90
23403;DHT22;11874;48.228;11.684;2023-01-10T04:30:20;6.00;99.90
23403;DHT22;11874;48.228;11.684;2023-01-10T04:32:47;6.00;99.90
23403;DHT22;11874;48.228;11.684;2023-01-10T04:35:15;6.20;99.90
23403;DHT22;11874;48.228;11.684;2023-01-10T04:37:43;6.00;99.90
23403;DHT22;11874;48.228;11.684;2023-01-10T04:40:11;6.10;99.90
23403;DHT22;11874;48.228;11.684;2023-01-10T04:42:43;6.20;99.90
23403;DHT22;11874;48.228;11.684;2023-01-10T04:45:11;6.10;99.90
23403;DHT22;11874;48.228;11.684;2023-01-10T04:47:43;6.10;99.90
23403;DHT22;11874;48.228;11.684;2023-01-10T04:50:15;6.20;99.90
23403;DHT22;11874;48.228;11.684;2023-01-10T04:52:43;6.30;99.90
23403;DHT22;11874;48.228;11.684;2023-01-10T04:55:10;6.10;99.90
23403;DHT22;11874;48.228;11.684;2023-01-10T04:57:38;6.10;99.90
23403;DHT22;11874;48.228;11.684;2023-01-10T05:00:09;6.10;99.90
23403;DHT22;11874;48.228;11.684;2023-01-10T05:02:38;6.10;99.90
23403;DHT22;11874;48.228;11.684;2023-01-10T05:05:09;6.10;99.90
23403;DHT22;11874;48.228;11.684;2023-01-10T05:07:37;6.10;99.90
23403;DHT22;11874;48.228;11.684;2023-01-10T05:10:06;6.00;99.90
23403;DHT22;11874;48.228;11.684;2023-01-10T05:12:34;6.20;99.90
23403;DHT22;11874;48.228;11.684;2023-01-10T05:15:03;6.10;99.90
23403;DHT22;11874;48.228;11.684;2023-01-10T05:17:32;6.10;99.90
23403;DHT22;11874;48.228;11.684;2023-01-10T05:20:00;6.20;99.90
23403;DHT22;11874;48.228;11.684;2023-01-10T05:22:28;6.20;99.90
23403;DHT22;11874;48.228;11.684;2023-01-10T05:24:55;6.30;99.90
23403;DHT22;11874;48.228;11.684;2023-01-10T05:27:23;6.20;99.90
23403;DHT22;11874;48.228;11.684;2023-01-10T05:29:51;6.20;99.90
23403;DHT22;11874;48.228;11.684;2023-01-10T05:32:19;6.00;99.90
23403;DHT22;11874;48.228;11.684;2023-01-10T05:34:48;6.10;99.90
23403;DHT22;11874;48.228;11.684;2023-01-10T05:37:16;6.00;99.90
23403;DHT22;11874;48.228;11.684;2023-01-10T05:39:43;6.10;99.90
23403;DHT22;11874;48.228;11.684;2023-01-10T05:42:11;6.10;99.90
23403;DHT22;11874;48.228;11.684;2023-01-10T05:44:39;6.00;99.90
23403;DHT22;11874;48.228;11.684;2023-01-10T05:47:07;6.20;99.90
23403;DHT22;11874;48.228;11.684;2023-01-10T05:49:34;6.10;99.90
23403;DHT22;11874;48.228;11.684;2023-01-10T05:52:04;6.10;99.90
23403;DHT22;11874;48.228;11.684;2023-01-10T05:54:32;6.10;99.90
23403;DHT22;11874;48.228;11.684;2023-01-10T05:56:59;6.10;99.90
23403;DHT22;11874;48.228;11.684;2023-01-10T05:59:27;6.20;99.90
23403;DHT22;11874;48.228;11.684;2023-01-10T06:01:55;6.10;99.90
23403;DHT22;11874;48.228;11.684;2023-01-10T06:04:23;6.10;99.90
23403;DHT22;11874;48.228;11.684;2023-01-10T06:06:52;6.10;99.90
23403;DHT22;11874;48.228;11.684;2023-01-10T06:09:21;6.10;99.90
23403;DHT22;11874;48.228;11.684;2023-01-10T06:11:49;6.10;99.90
23403;DHT22;11874;48.228;11.684;2023-01-10T06:14:16;6.00;99.90
23403;DHT22;11874;48.228;11.684;2023-01-10T06:16:45;6.10;99.90
23403;DHT22;11874;48.228;11.684;2023-01-10T06:19:13;6.00;99.90
23403;DHT22;11874;48.228;11.684;2023-01-10T06:21:41;6.10;99.90
23403;DHT22;11874;48.228;11.684;2023-01-10T06:24:09;5.90;99.90
23403;DHT22;11874;48.228;11.684;2023-01-10T06:26:38;6.10;99.90
23403;DHT22;11874;48.228;11.684;2023-01-10T06:29:06;6.00;99.90
23403;DHT22;11874;48.228;11.684;2023-01-10T06:31:34;6.10;99.90
23403;DHT22;11874;48.228;11.684;2023-01-10T06:34:02;6.00;99.90
23403;DHT22;11874;48.228;11.684;2023-01-10T06:36:29;6.00;99.90
23403;DHT22;11874;48.228;11.684;2023-01-10T06:38:57;6.00;99.90
23403;DHT22;11874;48.228;11.684;2023-01-10T06:41:25;5.90;99.90
23403;DHT22;11874;48.228;11.684;2023-01-10T06:43:54;6.00;99.90
23403;DHT22;11874;48.228;11.684;2023-01-10T06:46:22;6.10;99.90
23403;DHT22;11874;48.228;11.684;2023-01-10T06:48:50;6.00;99.90
23403;DHT22;11874;48.228;11.684;2023-01-10T06:51:17;6.00;99.90
23403;DHT22;11874;48.228;11.684;2023-01-10T06:53:46;6.00;99.90
23403;DHT22;11874;48.228;11.684;2023-01-10T06:56:14;6.10;99.90
23403;DHT22;11874;48.228;11.684;2023-01-10T06:58:41;6.00;99.90
23403;DHT22;11874;48.228;11.684;2023-01-10T07:01:15;6.00;99.90
23403;DHT22;11874;48.228;11.684;2023-01-10T07:03:43;6.00;99.90
23403;DHT22;11874;48.228;11.684;2023-01-10T07:06:11;6.10;99.90
23403;DHT22;11874;48.228;11.684;2023-01-10T07:08:41;6.00;99.90
23403;DHT22;11874;48.228;11.684;2023-01-10T07:11:12;6.00;99.90
23403;DHT22;11874;48.228;11.684;2023-01-10T07:13:40;6.10;99.90
23403;DHT22;11874;48.228;11.684;2023-01-10T07:16:09;6.10;99.90
23403;DHT22;11874;48.228;11.684;2023-01-10T07:18:40;6.10;99.90
23403;DHT22;11874;48.228;11.684;2023-01-10T07:21:09;6.10;99.90
23403;DHT22;11874;48.228;11.684;2023-01-10T07:23:37;6.00;99.90
23403;DHT22;11874;48.228;11.684;2023-01-10T07:26:06;6.10;99.90
23403;DHT22;11874;48.228;11.684;2023-01-10T07:28:34;5.80;99.90
23403;DHT22;11874;48.228;11.684;2023-01-10T07:31:04;6.00;99.90
23403;DHT22;11874;48.228;11.684;2023-01-10T07:33:32;6.00;99.90
23403;DHT22;11874;48.228;11.684;2023-01-10T07:36:03;6.10;99.90
23403;DHT22;11874;48.228;11.684;2023-01-10T07:38:30;5.90;99.90
23403;DHT22;11874;48.228;11.684;2023-01-10T07:41:00;5.90;99.90
23403;DHT22;11874;48.228;11.684;2023-01-10T07:43:29;5.70;99.90
23403;DHT22;11874;48.228;11.684;2023-01-10T07:45:57;5.90;99.90
23403;DHT22;11874;48.228;11.684;2023-01-10T07:48:25;6.00;99.90
23403;DHT22;11874;48.228;11.684;2023-01-10T07:50:55;5.90;99.90
23403;DHT22;11874;48.228;11.684;2023-01-10T07:53:24;6.00;99.90
23403;DHT22;11874;48.228;11.684;2023-01-10T07:55:52;5.80;99.90
23403;DHT22;11874;48.228;11.684;2023-01-10T07:58:20;6.00;99.90
23403;DHT22;11874;48.228;11.684;2023-01-10T08:00:48;5.80;99.90
23403;DHT22;11874;48.228;11.684;2023-01-10T08:03:16;5.70;99.90
23403;DHT22;11874;48.228;11.684;2023-01-10T08:05:45;5.80;99.90
23403;DHT22;11874;48.228;11.684;2023-01-10T08:08:12;5.80;99.90
23403;DHT22;11874;48.228;11.684;2023-01-10T08:10:43;5.80;99.90
23403;DHT22;11874;48.228;11.684;2023-01-10T08:13:11;5.80;99.90
23403;DHT22;11874;48.228;11.684;2023-01-10T08:15:44;5.80;99.90
23403;DHT22;11874;48.228;11.684;2023-01-10T08:18:15;5.70;99.90
23403;DHT22;11874;48.228;11.684;2023-01-10T08:20:43;5.80;99.90
23403;DHT22;11874;48.228;11.684;2023-01-10T08:23:13;5.90;99.90
23403;DHT22;11874;48.228;11.684;2023-01-10T08:25:42;5.90;99.90
23403;DHT22;11874;48.228;11.684;2023-01-10T08:28:10;5.90;99.90
23403;DHT22;11874;48.228;11.684;2023-01-10T08:30:38;5.90;99.90
23403;DHT22;11874;48.228;11.684;2023-01-10T08:33:08;6.00;99.90
23403;DHT22;11874;48.228;11.684;2023-01-10T08:35:36;5.70;99.90
23403;DHT22;11874;48.228;11.684;2023-01-10T08:38:04;5.90;99.90
23403;DHT22;11874;48.228;11.684;2023-01-10T08:40:32;5.90;99.90
23403;DHT22;11874;48.228;11.684;2023-01-10T08:43:03;6.00;99.90
23403;DHT22;11874;48.228;11.684;2023-01-10T08:45:32;6.00;99.90
23403;DHT22;11874;48.228;11.684;2023-01-10T08:48:00;6.00;99.90
23403;DHT22;11874;48.228;11.684;2023-01-10T08:50:29;5.90;99.90
23403;DHT22;11874;48.228;11.684;2023-01-10T08:52:57;5.90;99.90
23403;DHT22;11874;48.228;11.684;2023-01-10T08:55:26;6.00;99.90
23403;DHT22;11874;48.228;11.684;2023-01-10T08:57:54;6.00;99.90
23403;DHT22;11874;48.228;11.684;2023-01-10T09:00:23;6.20;99.90
23403;DHT22;11874;48.228;11.684;2023-01-10T09:02:51;6.20;99.90
23403;DHT22;11874;48.228;11.684;2023-01-10T09:05:19;6.10;99.90
23403;DHT22;11874;48.228;11.684;2023-01-10T09:07:57;6.10;99.90
23403;DHT22;11874;48.228;11.684;2023-01-10T09:10:26;6.10;99.90
23403;DHT22;11874;48.228;11.684;2023-01-10T09:12:54;6.00;99.90
23403;DHT22;11874;48.228;11.684;2023-01-10T09:15:28;5.90;99.90
23403;DHT22;11874;48.228;11.684;2023-01-10T09:17:57;6.10;99.90
23403;DHT22;11874;48.228;11.684;2023-01-10T09:20:26;6.10;99.90
23403;DHT22;11874;48.228;11.684;2023-01-10T09:22:55;6.00;99.90
23403;DHT22;11874;48.228;11.684;2023-01-10T09:25:24;6.10;99.90
23403;DHT22;11874;48.228;11.684;2023-01-10T09:27:56;6.10;99.90
23403;DHT22;11874;48.228;11.684;2023-01-10T09:30:26;5.90;99.90
23403;DHT22;11874;48.228;11.684;2023-01-10T09:32:55;6.00;99.90
23403;DHT22;11874;48.228;11.684;2023-01-10T09:35:24;6.00;99.90
23403;DHT22;11874;48.228;11.684;2023-01-10T09:37:53;6.20;99.90
23403;DHT22;11874;48.228;11.684;2023-01-10T09:40:30;6.10;99.90
23403;DHT22;11874;48.228;11.684;2023-01-10T09:43:07;5.90;99.90
23403;DHT22;11874;48.228;11.684;2023-01-10T09:45:41;6.10;99.90
23403;DHT22;11874;48.228;11.684;2023-01-10T09:48:17;6.10;99.90
23403;DHT22;11874;48.228;11.684;2023-01-10T09:51:02;6.00;99.90
23403;DHT22;11874;48.228;11.684;2023-01-10T09:53:33;6.00;99.90
23403;DHT22;11874;48.228;11.684;2023-01-10T09:56:03;6.00;99.90
23403;DHT22;11874;48.228;11.684;2023-01-10T09:58:34;6.20;99.90
23403;DHT22;11874;48.228;11.684;2023-01-10T10:01:06;6.10;99.90
23403;DHT22;11874;48.228;11.684;2023-01-10T10:03:37;6.00;99.90
23403;DHT22;11874;48.228;11.684;2023-01-10T10:06:09;6.00;99.90
23403;DHT22;11874;48.228;11.684;2023-01-10T10:08:38;6.00;99.90
23403;DHT22;11874;48.228;11.684;2023-01-10T10:11:21;6.10;99.90
23403;DHT22;11874;48.228;11.684;2023-01-10T10:13:58;6.10;99.90
23403;DHT22;11874;48.228;11.684;2023-01-10T10:16:39;6.20;99.90
23403;DHT22;11874;48.228;11.684;2023-01-10T10:19:16;6.10;99.90
23403;DHT22;11874;48.228;11.684;2023-01-10T10:21:52;6.10;99.90
23403;DHT22;11874;48.228;11.684;2023-01-10T10:24:40;6.00;99.90
23403;DHT22;11874;48.228;11.684;2023-01-10T10:27:18;6.20;99.90
23403;DHT22;11874;48.228;11.684;2023-01-10T10:29:58;6.20;99.90
23403;DHT22;11874;48.228;11.684;2023-01-10T10:32:44;6.10;99.90
23403;DHT22;11874;48.228;11.684;2023-01-10T10:35:21;6.30;99.90
23403;DHT22;11874;48.228;11.684;2023-01-10T10:37:52;6.10;99.90
23403;DHT22;11874;48.228;11.684;2023-01-10T10:40:23;6.20;99.90
23403;DHT22;11874;48.228;11.684;2023-01-10T10:42:52;6.50;99.90
23403;DHT22;11874;48.228;11.684;2023-01-10T10:45:25;6.20;99.90
23403;DHT22;11874;48.228;11.684;2023-01-10T10:48:00;6.20;99.90
23403;DHT22;11874;48.228;11.684;2023-01-10T10:50:31;6.30;99.90
23403;DHT22;11874;48.228;11.684;2023-01-10T10:53:01;6.20;99.90
23403;DHT22;11874;48.228;11.684;2023-01-10T10:55:32;6.30;99.90
23403;DHT22;11874;48.228;11.684;2023-01-10T10:58:01;6.40;99.90
23403;DHT22;11874;48.228;11.684;2023-01-10T11:00:30;6.50;99.90
23403;DHT22;11874;48.228;11.684;2023-01-10T11:03:03;6.70;99.90
23403;DHT22;11874;48.228;11.684;2023-01-10T11:05:36;6.30;99.90
23403;DHT22;11874;48.228;11.684;2023-01-10T11:08:06;6.30;99.90
23403;DHT22;11874;48.228;11.684;2023-01-10T11:10:36;6.30;99.90
23403;DHT22;11874;48.228;11.684;2023-01-10T11:13:15;6.30;99.90
23403;DHT22;11874;48.228;11.684;2023-01-10T11:15:45;6.40;99.90
23403;DHT22;11874;48.228;11.684;2023-01-10T11:18:16;6.50;99.90
23403;DHT22;11874;48.228;11.684;2023-01-10T11:20:46;6.40;99.90
23403;DHT22;11874;48.228;11.684;2023-01-10T11:23:23;6.20;99.90
23403;DHT22;11874;48.228;11.684;2023-01-10T11:25:52;6.30;99.90
23403;DHT22;11874;48.228;11.684;2023-01-10T11:28:23;6.50;99.90
23403;DHT22;11874;48.228;11.684;2023-01-10T11:30:52;6.30;99.90
23403;DHT22;11874;48.228;11.684;2023-01-10T11:33:28;6.10;99.90
23403;DHT22;11874;48.228;11.684;2023-01-10T11:36:00;6.20;99.90
23403;DHT22;11874;48.228;11.684;2023-01-10T11:38:28;6.10;99.90
23403;DHT22;11874;48.228;11.684;2023-01-10T11:40:59;6.20;99.90
23403;DHT22;11874;48.228;11.684;2023-01-10T11:43:30;6.30;99.90
23403;DHT22;11874;48.228;11.684;2023-01-10T11:46:01;6.30;99.90
23403;DHT22;11874;48.228;11.684;2023-01-10T11:48:42;6.40;99.90
23403;DHT22;11874;48.228;11.684;2023-01-10T11:51:33;6.90;99.90
23403;DHT22;11874;48.228;11.684;2023-01-10T11:54:05;6.30;99.90
23403;DHT22;11874;48.228;11.684;2023-01-10T11:56:35;6.50;99.90
23403;DHT22;11874;48.228;11.684;2023-01-10T11:59:10;6.30;99.90
23403;DHT22;11874;48.228;11.684;2023-01-10T12:01:42;6.30;99.90
23403;DHT22;11874;48.228;11.684;2023-01-10T12:04:14;6.20;99.90
23403;DHT22;11874;48.228;11.684;2023-01-10T12:06:43;6.40;99.90
23403;DHT22;11874;48.228;11.684;2023-01-10T12:09:40;6.60;99.90
23403;DHT22;11874;48.228;11.684;2023-01-10T12:12:20;6.60;99.90
23403;DHT22;11874;48.228;11.684;2023-01-10T12:14:49;6.50;99.90
23403;DHT22;11874;48.228;11.684;2023-01-10T12:17:21;6.60;99.90
23403;DHT22;11874;48.228;11.684;2023-01-10T12:19:52;6.60;99.90
23403;DHT22;11874;48.228;11.684;2023-01-10T12:22:26;6.60;99.90
23403;DHT22;11874;48.228;11.684;2023-01-10T12:24:58;6.70;99.90
23403;DHT22;11874;48.228;11.684;2023-01-10T12:27:27;6.80;99.90
23403;DHT22;11874;48.228;11.684;2023-01-10T12:30:01;6.80;99.90
23403;DHT22;11874;48.228;11.684;2023-01-10T12:32:37;6.80;99.90
23403;DHT22;11874;48.228;11.684;2023-01-10T12:35:12;6.90;99.90
23403;DHT22;11874;48.228;11.684;2023-01-10T12:37:46;6.80;99.90
23403;DHT22;11874;48.228;11.684;2023-01-10T12:40:19;7.00;99.90
23403;DHT22;11874;48.228;11.684;2023-01-10T12:42:53;6.90;99.90
23403;DHT22;11874;48.228;11.684;2023-01-10T12:45:42;6.80;99.90
23403;DHT22;11874;48.228;11.684;2023-01-10T12:48:16;6.90;99.90
23403;DHT22;11874;48.228;11.684;2023-01-10T12:50:52;6.90;99.90
23403;DHT22;11874;48.228;11.684;2023-01-10T12:53:28;7.00;99.90
23403;DHT22;11874;48.228;11.684;2023-01-10T12:55:59;7.00;99.90
23403;DHT22;11874;48.228;11.684;2023-01-10T12:58:35;6.90;99.90
23403;DHT22;11874;48.228;11.684;2023-01-10T13:01:05;6.70;99.90
23403;DHT22;11874;48.228;11.684;2023-01-10T13:03:34;6.80;99.90
23403;DHT22;11874;48.228;11.684;2023-01-10T13:06:04;6.80;99.90
23403;DHT22;11874;48.228;11.684;2023-01-10T13:08:33;6.90;99.90
23403;DHT22;11874;48.228;11.684;2023-01-10T13:11:02;6.80;99.90
23403;DHT22;11874;48.228;11.684;2023-01-10T13:13:33;7.10;99.90
23403;DHT22;11874;48.228;11.684;2023-01-10T13:16:25;6.90;99.90
23403;DHT22;11874;48.228;11.684;2023-01-10T13:19:00;6.70;99.90
23403;DHT22;11874;48.228;11.684;2023-01-10T13:21:30;6.80;99.90
23403;DHT22;11874;48.228;11.684;2023-01-10T13:24:00;6.60;99.90
23403;DHT22;11874;48.228;11.684;2023-01-10T13:26:44;6.60;99.90
23403;DHT22;11874;48.228;11.684;2023-01-10T13:29:17;6.60;99.90
23403;DHT22;11874;48.228;11.684;2023-01-10T13:31:46;6.80;99.90
23403;DHT22;11874;48.228;11.684;2023-01-10T13:34:15;6.80;99.90
23403;DHT22;11874;48.228;11.684;2023-01-10T13:36:52;6.80;99.90
23403;DHT22;11874;48.228;11.684;2023-01-10T13:39:26;6.80;99.90
23403;DHT22;11874;48.228;11.684;2023-01-10T13:45:21;6.90;99.90
23403;DHT22;11874;48.228;11.684;2023-01-10T13:48:23;6.80;99.90
23403;DHT22;11874;48.228;11.684;2023-01-10T13:51:06;6.80;99.90
23403;DHT22;11874;48.228;11.684;2023-01-10T13:54:00;6.70;99.90
23403;DHT22;11874;48.228;11.684;2023-01-10T13:56:30;6.90;99.90
23403;DHT22;11874;48.228;11.684;2023-01-10T13:58:58;6.80;99.90
23403;DHT22;11874;48.228;11.684;2023-01-10T14:01:49;6.80;99.90
23403;DHT22;11874;48.228;11.684;2023-01-10T14:04:38;6.80;99.90
23403;DHT22;11874;48.228;11.684;2023-01-10T14:07:20;6.60;99.90
23403;DHT22;11874;48.228;11.684;2023-01-10T14:09:52;6.60;99.90
23403;DHT22;11874;48.228;11.684;2023-01-10T14:12:28;6.60;99.90
23403;DHT22;11874;48.228;11.684;2023-01-10T14:14:59;6.60;99.90
23403;DHT22;11874;48.228;11.684;2023-01-10T14:17:30;6.70;99.90
23403;DHT22;11874;48.228;11.684;2023-01-10T14:20:06;6.80;99.90
23403;DHT22;11874;48.228;11.684;2023-01-10T14:22:45;6.80;99.90
23403;DHT22;11874;48.228;11.684;2023-01-10T14:25:25;6.70;99.90
23403;DHT22;11874;48.228;11.684;2023-01-10T14:27:54;6.50;99.90
23403;DHT22;11874;48.228;11.684;2023-01-10T14:30:25;6.50;99.90
23403;DHT22;11874;48.228;11.684;2023-01-10T14:32:55;6.60;99.90
23403;DHT22;11874;48.228;11.684;2023-01-10T14:35:26;6.50;99.90
23403;DHT22;11874;48.228;11.684;2023-01-10T14:37:57;6.60;99.90
23403;DHT22;11874;48.228;11.684;2023-01-10T14:40:34;6.50;99.90
23403;DHT22;11874;48.228;11.684;2023-01-10T14:43:08;6.60;99.90
23403;DHT22;11874;48.228;11.684;2023-01-10T14:45:42;6.50;99.90
23403;DHT22;11874;48.228;11.684;2023-01-10T14:48:28;6.90;99.90
23403;DHT22;11874;48.228;11.684;2023-01-10T14:51:16;6.80;99.90
23403;DHT22;11874;48.228;11.684;2023-01-10T14:53:47;6.50;99.90
23403;DHT22;11874;48.228;11.684;2023-01-10T14:56:24;6.60;99.90
23403;DHT22;11874;48.228;11.684;2023-01-10T14:58:52;6.60;99.90
23403;DHT22;11874;48.228;11.684;2023-01-10T15:01:23;6.80;99.90
23403;DHT22;11874;48.228;11.684;2023-01-10T15:03:52;6.60;99.90
23403;DHT22;11874;48.228;11.684;2023-01-10T15:06:20;6.80;99.90
23403;DHT22;11874;48.228;11.684;2023-01-10T15:08:55;6.80;99.90
23403;DHT22;11874;48.228;11.684;2023-01-10T15:11:25;6.70;99.90
23403;DHT22;11874;48.228;11.684;2023-01-10T15:13:56;6.80;99.90
23403;DHT22;11874;48.228;11.684;2023-01-10T15:16:28;6.80;99.90
23403;DHT22;11874;48.228;11.684;2023-01-10T15:18:56;6.70;99.90
23403;DHT22;11874;48.228;11.684;2023-01-10T15:21:24;6.70;99.90
23403;DHT22;11874;48.228;11.684;2023-01-10T15:23:52;6.60;99.90
23403;DHT22;11874;48.228;11.684;2023-01-10T15:26:28;6.70;99.90
23403;DHT22;11874;48.228;11.684;2023-01-10T15:29:05;6.70;99.90
23403;DHT22;11874;48.228;11.684;2023-01-10T15:31:37;6.60;99.90
23403;DHT22;11874;48.228;11.684;2023-01-10T15:34:07;6.50;99.90
23403;DHT22;11874;48.228;11.684;2023-01-10T15:36:40;6.40;99.90
23403;DHT22;11874;48.228;11.684;2023-01-10T15:39:17;6.60;99.90
23403;DHT22;11874;48.228;11.684;2023-01-10T15:41:47;6.50;99.90
23403;DHT22;11874;48.228;11.684;2023-01-10T15:44:21;6.50;99.90
23403;DHT22;11874;48.228;11.684;2023-01-10T15:46:53;6.30;99.90
23403;DHT22;11874;48.228;11.684;2023-01-10T15:49:22;6.40;99.90
23403;DHT22;11874;48.228;11.684;2023-01-10T15:51:51;6.50;99.90
23403;DHT22;11874;48.228;11.684;2023-01-10T15:54:28;6.30;99.90
23403;DHT22;11874;48.228;11.684;2023-01-10T15:57:03;6.20;99.90
23403;DHT22;11874;48.228;11.684;2023-01-10T15:59:34;6.30;99.90
23403;DHT22;11874;48.228;11.684;2023-01-10T16:02:16;6.20;99.90
23403;DHT22;11874;48.228;11.684;2023-01-10T16:04:48;6.30;99.90
23403;DHT22;11874;48.228;11.684;2023-01-10T16:07:20;6.40;99.90